sensor_id;sensor_type;location;lat;lon;timestamp;P1;durP1;ratioP1;P2;durP2;ratioP2
705;SDS011;21234;48.690;9.016;2022-12-17T00:01:49;83.00;;;32.40;;
705;SDS011;21234;48.690;9.016;2022-12-17T00:04:35;58.93;;;29.03;;
705;SDS011;21234;48.690;9.016;2022-12-17T00:07:19;54.30;;;27.77;;
705;SDS011;21234;48.690;9.016;2022-12-17T00:10:03;30.27;;;20.90;;
705;SDS011;21234;48.690;9.016;2022-12-17T00:12:47;30.00;;;16.07;;
705;SDS011;21234;48.690;9.016;2022-12-17T00:15:32;22.93;;;13.13;;
705;SDS011;21234;48.690;9.016;2022-12-17T00:18:16;21.73;;;14.00;;
705;SDS011;21234;48.690;9.016;2022-12-17T00:21:13;17.43;;;11.10;;
705;SDS011;21234;48.690;9.016;2022-12-17T00:23:57;22.03;;;11.67;;
705;SDS011;21234;48.690;9.016;2022-12-17T00:26:42;17.87;;;11.07;;
705;SDS011;21234;48.690;9.016;2022-12-17T00:29:26;16.97;;;10.77;;
705;SDS011;21234;48.690;9.016;2022-12-17T00:32:09;19.47;;;10.90;;
705;SDS011;21234;48.690;9.016;2022-12-17T00:34:53;17.40;;;10.53;;
705;SDS011;21234;48.690;9.016;2022-12-17T00:37:38;14.90;;;9.83;;
705;SDS011;21234;48.690;9.016;2022-12-17T00:40:23;16.90;;;11.03;;
705;SDS011;21234;48.690;9.016;2022-12-17T00:43:08;17.00;;;10.17;;
705;SDS011;21234;48.690;9.016;2022-12-17T00:45:53;16.20;;;9.70;;
705;SDS011;21234;48.690;9.016;2022-12-17T00:48:37;13.23;;;8.90;;
705;SDS011;21234;48.690;9.016;2022-12-17T00:51:21;14.50;;;10.20;;
705;SDS011;21234;48.690;9.016;2022-12-17T00:54:07;23.33;;;11.47;;
705;SDS011;21234;48.690;9.016;2022-12-17T00:56:51;16.23;;;11.43;;
705;SDS011;21234;48.690;9.016;2022-12-17T00:59:35;18.17;;;11.83;;
705;SDS011;21234;48.690;9.016;2022-12-17T01:02:19;22.30;;;12.00;;
705;SDS011;21234;48.690;9.016;2022-12-17T01:05:04;17.10;;;10.03;;
705;SDS011;21234;48.690;9.016;2022-12-17T01:07:49;15.83;;;10.63;;
705;SDS011;21234;48.690;9.016;2022-12-17T01:10:35;18.60;;;11.00;;
705;SDS011;21234;48.690;9.016;2022-12-17T01:13:20;13.00;;;8.87;;
705;SDS011;21234;48.690;9.016;2022-12-17T01:16:04;19.67;;;11.53;;
705;SDS011;21234;48.690;9.016;2022-12-17T01:18:50;16.17;;;11.27;;
705;SDS011;21234;48.690;9.016;2022-12-17T01:21:35;18.43;;;11.00;;
705;SDS011;21234;48.690;9.016;2022-12-17T01:24:19;14.50;;;9.70;;
705;SDS011;21234;48.690;9.016;2022-12-17T01:27:05;20.00;;;10.97;;
705;SDS011;21234;48.690;9.016;2022-12-17T01:29:49;16.60;;;10.63;;
705;SDS011;21234;48.690;9.016;2022-12-17T01:32:33;17.17;;;12.20;;
705;SDS011;21234;48.690;9.016;2022-12-17T01:35:13;17.53;;;11.17;;
705;SDS011;21234;48.690;9.016;2022-12-17T01:37:58;13.60;;;9.80;;
705;SDS011;21234;48.690;9.016;2022-12-17T01:40:42;20.67;;;11.90;;
705;SDS011;21234;48.690;9.016;2022-12-17T01:43:34;14.17;;;10.07;;
705;SDS011;21234;48.690;9.016;2022-12-17T01:46:22;16.23;;;10.40;;
705;SDS011;21234;48.690;9.016;2022-12-17T01:49:08;14.43;;;9.53;;
705;SDS011;21234;48.690;9.016;2022-12-17T01:51:54;14.30;;;10.80;;
705;SDS011;21234;48.690;9.016;2022-12-17T01:54:39;16.07;;;9.60;;
705;SDS011;21234;48.690;9.016;2022-12-17T01:57:24;17.90;;;11.30;;
705;SDS011;21234;48.690;9.016;2022-12-17T02:00:12;17.60;;;10.67;;
705;SDS011;21234;48.690;9.016;2022-12-17T02:02:57;19.50;;;10.80;;
705;SDS011;21234;48.690;9.016;2022-12-17T02:05:42;18.07;;;11.00;;
705;SDS011;21234;48.690;9.016;2022-12-17T02:08:39;13.37;;;9.80;;
705;SDS011;21234;48.690;9.016;2022-12-17T02:11:32;14.17;;;9.20;;
705;SDS011;21234;48.690;9.016;2022-12-17T02:14:26;13.47;;;9.60;;
705;SDS011;21234;48.690;9.016;2022-12-17T02:17:19;17.33;;;9.90;;
705;SDS011;21234;48.690;9.016;2022-12-17T02:20:11;14.77;;;8.80;;
705;SDS011;21234;48.690;9.016;2022-12-17T02:23:04;15.60;;;8.30;;
705;SDS011;21234;48.690;9.016;2022-12-17T02:25:58;16.87;;;10.17;;
705;SDS011;21234;48.690;9.016;2022-12-17T02:28:47;13.43;;;8.97;;
705;SDS011;21234;48.690;9.016;2022-12-17T02:31:32;14.77;;;9.00;;
705;SDS011;21234;48.690;9.016;2022-12-17T02:34:17;14.20;;;9.30;;
705;SDS011;21234;48.690;9.016;2022-12-17T02:37:01;16.53;;;9.63;;
705;SDS011;21234;48.690;9.016;2022-12-17T02:39:45;15.43;;;9.13;;
705;SDS011;21234;48.690;9.016;2022-12-17T02:42:29;15.23;;;9.83;;
705;SDS011;21234;48.690;9.016;2022-12-17T02:45:16;15.73;;;10.47;;
705;SDS011;21234;48.690;9.016;2022-12-17T02:48:01;17.50;;;9.17;;
705;SDS011;21234;48.690;9.016;2022-12-17T02:50:46;15.13;;;9.70;;
705;SDS011;21234;48.690;9.016;2022-12-17T02:53:30;16.07;;;9.93;;
705;SDS011;21234;48.690;9.016;2022-12-17T02:56:26;16.40;;;8.90;;
705;SDS011;21234;48.690;9.016;2022-12-17T02:59:11;18.87;;;11.37;;
705;SDS011;21234;48.690;9.016;2022-12-17T03:01:56;14.67;;;10.40;;
705;SDS011;21234;48.690;9.016;2022-12-17T03:04:40;14.30;;;9.00;;
705;SDS011;21234;48.690;9.016;2022-12-17T03:07:25;14.00;;;9.30;;
705;SDS011;21234;48.690;9.016;2022-12-17T03:10:09;17.67;;;9.17;;
705;SDS011;21234;48.690;9.016;2022-12-17T03:12:53;15.03;;;9.87;;
705;SDS011;21234;48.690;9.016;2022-12-17T03:15:37;13.40;;;9.27;;
705;SDS011;21234;48.690;9.016;2022-12-17T03:18:22;16.67;;;9.67;;
705;SDS011;21234;48.690;9.016;2022-12-17T03:21:06;16.43;;;8.57;;
705;SDS011;21234;48.690;9.016;2022-12-17T03:23:50;12.20;;;9.17;;
705;SDS011;21234;48.690;9.016;2022-12-17T03:26:34;10.07;;;7.80;;
705;SDS011;21234;48.690;9.016;2022-12-17T03:29:18;20.00;;;11.27;;
705;SDS011;21234;48.690;9.016;2022-12-17T03:32:02;13.77;;;10.80;;
705;SDS011;21234;48.690;9.016;2022-12-17T03:34:48;12.23;;;9.00;;
705;SDS011;21234;48.690;9.016;2022-12-17T03:37:31;13.87;;;9.10;;
705;SDS011;21234;48.690;9.016;2022-12-17T03:40:15;12.47;;;8.73;;
705;SDS011;21234;48.690;9.016;2022-12-17T03:43:04;14.33;;;8.10;;
705;SDS011;21234;48.690;9.016;2022-12-17T03:45:50;15.27;;;8.03;;
705;SDS011;21234;48.690;9.016;2022-12-17T03:48:35;16.30;;;9.63;;
705;SDS011;21234;48.690;9.016;2022-12-17T03:51:31;15.80;;;9.73;;
705;SDS011;21234;48.690;9.016;2022-12-17T03:54:15;15.50;;;9.10;;
705;SDS011;21234;48.690;9.016;2022-12-17T03:56:59;12.30;;;9.03;;
705;SDS011;21234;48.690;9.016;2022-12-17T03:59:43;12.53;;;9.20;;
705;SDS011;21234;48.690;9.016;2022-12-17T04:02:27;12.10;;;8.50;;
705;SDS011;21234;48.690;9.016;2022-12-17T04:05:11;13.73;;;9.13;;
705;SDS011;21234;48.690;9.016;2022-12-17T04:07:53;14.30;;;8.27;;
705;SDS011;21234;48.690;9.016;2022-12-17T04:10:37;11.87;;;8.20;;
705;SDS011;21234;48.690;9.016;2022-12-17T04:13:21;15.57;;;9.47;;
705;SDS011;21234;48.690;9.016;2022-12-17T04:16:06;11.67;;;9.37;;
705;SDS011;21234;48.690;9.016;2022-12-17T04:18:51;14.90;;;9.10;;
705;SDS011;21234;48.690;9.016;2022-12-17T04:21:35;11.13;;;8.27;;
705;SDS011;21234;48.690;9.016;2022-12-17T04:24:20;12.40;;;8.73;;
705;SDS011;21234;48.690;9.016;2022-12-17T04:27:05;14.83;;;10.57;;
705;SDS011;21234;48.690;9.016;2022-12-17T04:29:54;16.93;;;8.87;;
705;SDS011;21234;48.690;9.016;2022-12-17T04:32:38;26.67;;;10.73;;
705;SDS011;21234;48.690;9.016;2022-12-17T04:35:22;18.30;;;11.23;;
705;SDS011;21234;48.690;9.016;2022-12-17T04:38:06;17.00;;;8.67;;
705;SDS011;21234;48.690;9.016;2022-12-17T04:40:51;12.70;;;8.60;;
705;SDS011;21234;48.690;9.016;2022-12-17T04:43:35;16.03;;;9.53;;
705;SDS011;21234;48.690;9.016;2022-12-17T04:46:19;13.77;;;9.57;;
705;SDS011;21234;48.690;9.016;2022-12-17T04:49:03;12.43;;;9.13;;
705;SDS011;21234;48.690;9.016;2022-12-17T04:51:47;14.43;;;10.50;;
705;SDS011;21234;48.690;9.016;2022-12-17T04:54:31;16.87;;;9.30;;
705;SDS011;21234;48.690;9.016;2022-12-17T04:57:17;15.10;;;9.73;;
705;SDS011;21234;48.690;9.016;2022-12-17T05:00:01;14.80;;;8.97;;
705;SDS011;21234;48.690;9.016;2022-12-17T05:02:45;11.40;;;8.37;;
705;SDS011;21234;48.690;9.016;2022-12-17T05:05:28;13.53;;;9.40;;
705;SDS011;21234;48.690;9.016;2022-12-17T05:08:13;15.00;;;8.83;;
705;SDS011;21234;48.690;9.016;2022-12-17T05:11:00;13.20;;;7.60;;
705;SDS011;21234;48.690;9.016;2022-12-17T05:13:45;17.70;;;8.33;;
705;SDS011;21234;48.690;9.016;2022-12-17T05:16:29;17.87;;;8.43;;
705;SDS011;21234;48.690;9.016;2022-12-17T05:19:14;10.87;;;7.30;;
705;SDS011;21234;48.690;9.016;2022-12-17T05:21:57;15.60;;;9.07;;
705;SDS011;21234;48.690;9.016;2022-12-17T05:24:41;11.00;;;6.50;;
705;SDS011;21234;48.690;9.016;2022-12-17T05:27:25;15.57;;;7.90;;
705;SDS011;21234;48.690;9.016;2022-12-17T05:30:11;12.17;;;8.10;;
705;SDS011;21234;48.690;9.016;2022-12-17T05:32:58;10.70;;;8.20;;
705;SDS011;21234;48.690;9.016;2022-12-17T05:35:43;15.17;;;8.93;;
705;SDS011;21234;48.690;9.016;2022-12-17T05:38:27;12.07;;;8.57;;
705;SDS011;21234;48.690;9.016;2022-12-17T05:41:12;16.73;;;8.57;;
705;SDS011;21234;48.690;9.016;2022-12-17T05:43:57;11.20;;;8.17;;
705;SDS011;21234;48.690;9.016;2022-12-17T05:46:43;14.23;;;7.97;;
705;SDS011;21234;48.690;9.016;2022-12-17T05:49:27;9.77;;;6.60;;
705;SDS011;21234;48.690;9.016;2022-12-17T05:52:11;14.40;;;8.40;;
705;SDS011;21234;48.690;9.016;2022-12-17T05:54:55;10.97;;;8.30;;
705;SDS011;21234;48.690;9.016;2022-12-17T05:57:39;11.17;;;7.93;;
705;SDS011;21234;48.690;9.016;2022-12-17T06:00:24;14.83;;;8.40;;
705;SDS011;21234;48.690;9.016;2022-12-17T06:03:09;8.30;;;6.83;;
705;SDS011;21234;48.690;9.016;2022-12-17T06:05:54;14.90;;;8.27;;
705;SDS011;21234;48.690;9.016;2022-12-17T06:08:39;8.20;;;5.93;;
705;SDS011;21234;48.690;9.016;2022-12-17T06:11:23;11.47;;;7.70;;
705;SDS011;21234;48.690;9.016;2022-12-17T06:14:07;11.37;;;7.87;;
705;SDS011;21234;48.690;9.016;2022-12-17T06:16:52;15.37;;;9.53;;
705;SDS011;21234;48.690;9.016;2022-12-17T06:19:43;14.07;;;8.47;;
705;SDS011;21234;48.690;9.016;2022-12-17T06:22:38;15.13;;;9.53;;
705;SDS011;21234;48.690;9.016;2022-12-17T06:25:23;11.77;;;8.20;;
705;SDS011;21234;48.690;9.016;2022-12-17T06:28:07;12.63;;;7.63;;
705;SDS011;21234;48.690;9.016;2022-12-17T06:30:54;15.73;;;9.20;;
705;SDS011;21234;48.690;9.016;2022-12-17T06:33:38;14.73;;;8.27;;
705;SDS011;21234;48.690;9.016;2022-12-17T06:36:24;15.03;;;8.70;;
705;SDS011;21234;48.690;9.016;2022-12-17T06:39:08;16.47;;;10.30;;
705;SDS011;21234;48.690;9.016;2022-12-17T06:41:52;11.70;;;8.90;;
705;SDS011;21234;48.690;9.016;2022-12-17T06:44:37;14.83;;;9.60;;
705;SDS011;21234;48.690;9.016;2022-12-17T06:47:24;12.57;;;10.10;;
705;SDS011;21234;48.690;9.016;2022-12-17T06:50:08;23.50;;;12.50;;
705;SDS011;21234;48.690;9.016;2022-12-17T06:53:00;18.07;;;11.20;;
705;SDS011;21234;48.690;9.016;2022-12-17T06:55:45;16.30;;;11.00;;
705;SDS011;21234;48.690;9.016;2022-12-17T06:58:29;14.90;;;9.30;;
705;SDS011;21234;48.690;9.016;2022-12-17T07:01:14;14.20;;;10.70;;
705;SDS011;21234;48.690;9.016;2022-12-17T07:03:57;14.60;;;9.13;;
705;SDS011;21234;48.690;9.016;2022-12-17T07:06:41;19.43;;;11.23;;
705;SDS011;21234;48.690;9.016;2022-12-17T07:09:27;17.87;;;9.80;;
705;SDS011;21234;48.690;9.016;2022-12-17T07:12:11;16.77;;;9.50;;
705;SDS011;21234;48.690;9.016;2022-12-17T07:14:55;21.37;;;10.37;;
705;SDS011;21234;48.690;9.016;2022-12-17T07:17:39;19.23;;;9.50;;
705;SDS011;21234;48.690;9.016;2022-12-17T07:20:24;19.30;;;11.13;;
705;SDS011;21234;48.690;9.016;2022-12-17T07:23:08;23.20;;;11.70;;
705;SDS011;21234;48.690;9.016;2022-12-17T07:25:54;26.63;;;12.33;;
705;SDS011;21234;48.690;9.016;2022-12-17T07:28:39;31.77;;;12.10;;
705;SDS011;21234;48.690;9.016;2022-12-17T07:31:23;30.47;;;14.70;;
705;SDS011;21234;48.690;9.016;2022-12-17T07:34:07;21.10;;;12.47;;
705;SDS011;21234;48.690;9.016;2022-12-17T07:36:51;21.87;;;10.90;;
705;SDS011;21234;48.690;9.016;2022-12-17T07:39:35;22.20;;;10.80;;
705;SDS011;21234;48.690;9.016;2022-12-17T07:42:21;22.63;;;10.73;;
705;SDS011;21234;48.690;9.016;2022-12-17T07:45:05;25.33;;;11.90;;
705;SDS011;21234;48.690;9.016;2022-12-17T07:47:51;23.47;;;10.20;;
705;SDS011;21234;48.690;9.016;2022-12-17T07:50:35;18.87;;;10.53;;
705;SDS011;21234;48.690;9.016;2022-12-17T07:53:20;37.63;;;12.30;;
705;SDS011;21234;48.690;9.016;2022-12-17T07:56:05;16.80;;;11.23;;
705;SDS011;21234;48.690;9.016;2022-12-17T07:58:53;18.67;;;10.50;;
705;SDS011;21234;48.690;9.016;2022-12-17T08:01:37;19.73;;;10.97;;
705;SDS011;21234;48.690;9.016;2022-12-17T08:04:21;25.13;;;13.30;;
705;SDS011;21234;48.690;9.016;2022-12-17T08:07:06;24.97;;;10.57;;
705;SDS011;21234;48.690;9.016;2022-12-17T08:09:50;19.63;;;10.23;;
705;SDS011;21234;48.690;9.016;2022-12-17T08:12:34;22.77;;;9.73;;
705;SDS011;21234;48.690;9.016;2022-12-17T08:15:20;27.00;;;15.60;;
705;SDS011;21234;48.690;9.016;2022-12-17T08:18:04;20.70;;;11.20;;
705;SDS011;21234;48.690;9.016;2022-12-17T08:20:50;25.30;;;11.80;;
705;SDS011;21234;48.690;9.016;2022-12-17T08:23:35;28.90;;;11.30;;
705;SDS011;21234;48.690;9.016;2022-12-17T08:26:19;19.57;;;12.70;;
705;SDS011;21234;48.690;9.016;2022-12-17T08:29:03;26.83;;;13.23;;
705;SDS011;21234;48.690;9.016;2022-12-17T08:31:49;24.17;;;11.97;;
705;SDS011;21234;48.690;9.016;2022-12-17T08:34:33;27.43;;;12.90;;
705;SDS011;21234;48.690;9.016;2022-12-17T08:37:17;21.43;;;10.00;;
705;SDS011;21234;48.690;9.016;2022-12-17T08:40:01;23.83;;;12.60;;
705;SDS011;21234;48.690;9.016;2022-12-17T08:42:46;33.43;;;14.30;;
705;SDS011;21234;48.690;9.016;2022-12-17T08:45:30;25.20;;;12.80;;
705;SDS011;21234;48.690;9.016;2022-12-17T08:48:15;22.40;;;11.60;;
705;SDS011;21234;48.690;9.016;2022-12-17T08:50:59;34.60;;;12.47;;
705;SDS011;21234;48.690;9.016;2022-12-17T08:53:43;27.23;;;14.17;;
705;SDS011;21234;48.690;9.016;2022-12-17T08:56:27;25.87;;;12.90;;
705;SDS011;21234;48.690;9.016;2022-12-17T08:59:11;24.17;;;11.70;;
705;SDS011;21234;48.690;9.016;2022-12-17T09:01:55;17.20;;;11.03;;
705;SDS011;21234;48.690;9.016;2022-12-17T09:04:41;22.20;;;15.07;;
705;SDS011;21234;48.690;9.016;2022-12-17T09:07:25;34.30;;;13.43;;
705;SDS011;21234;48.690;9.016;2022-12-17T09:10:09;37.73;;;17.27;;
705;SDS011;21234;48.690;9.016;2022-12-17T09:12:53;26.13;;;14.27;;
705;SDS011;21234;48.690;9.016;2022-12-17T09:15:37;24.20;;;12.83;;
705;SDS011;21234;48.690;9.016;2022-12-17T09:18:21;18.47;;;10.77;;
705;SDS011;21234;48.690;9.016;2022-12-17T09:21:07;33.43;;;12.10;;
705;SDS011;21234;48.690;9.016;2022-12-17T09:23:51;24.90;;;12.27;;
705;SDS011;21234;48.690;9.016;2022-12-17T09:26:35;21.87;;;11.50;;
705;SDS011;21234;48.690;9.016;2022-12-17T09:29:19;21.87;;;11.90;;
705;SDS011;21234;48.690;9.016;2022-12-17T09:32:03;29.07;;;12.73;;
705;SDS011;21234;48.690;9.016;2022-12-17T09:34:47;27.50;;;13.70;;
705;SDS011;21234;48.690;9.016;2022-12-17T09:37:33;21.93;;;12.40;;
705;SDS011;21234;48.690;9.016;2022-12-17T09:40:19;22.67;;;10.87;;
705;SDS011;21234;48.690;9.016;2022-12-17T09:43:07;19.87;;;11.80;;
705;SDS011;21234;48.690;9.016;2022-12-17T09:46:04;33.23;;;12.50;;
705;SDS011;21234;48.690;9.016;2022-12-17T09:48:56;21.20;;;12.77;;
705;SDS011;21234;48.690;9.016;2022-12-17T09:51:53;28.80;;;13.50;;
705;SDS011;21234;48.690;9.016;2022-12-17T09:54:39;27.10;;;13.83;;
705;SDS011;21234;48.690;9.016;2022-12-17T09:57:27;25.80;;;13.67;;
705;SDS011;21234;48.690;9.016;2022-12-17T10:00:14;23.60;;;14.53;;
705;SDS011;21234;48.690;9.016;2022-12-17T10:02:59;28.13;;;14.80;;
705;SDS011;21234;48.690;9.016;2022-12-17T10:05:44;26.00;;;14.27;;
705;SDS011;21234;48.690;9.016;2022-12-17T10:08:37;30.20;;;15.53;;
705;SDS011;21234;48.690;9.016;2022-12-17T10:11:25;30.73;;;14.00;;
705;SDS011;21234;48.690;9.016;2022-12-17T10:14:11;33.50;;;16.33;;
705;SDS011;21234;48.690;9.016;2022-12-17T10:16:59;41.27;;;16.13;;
705;SDS011;21234;48.690;9.016;2022-12-17T10:19:43;34.50;;;16.17;;
705;SDS011;21234;48.690;9.016;2022-12-17T10:22:34;37.80;;;17.20;;
705;SDS011;21234;48.690;9.016;2022-12-17T10:25:25;43.30;;;16.37;;
705;SDS011;21234;48.690;9.016;2022-12-17T10:28:12;48.33;;;16.73;;
705;SDS011;21234;48.690;9.016;2022-12-17T10:30:58;33.50;;;15.67;;
705;SDS011;21234;48.690;9.016;2022-12-17T10:33:43;35.10;;;18.40;;
705;SDS011;21234;48.690;9.016;2022-12-17T10:36:28;42.17;;;17.67;;
705;SDS011;21234;48.690;9.016;2022-12-17T10:39:14;36.27;;;18.30;;
705;SDS011;21234;48.690;9.016;2022-12-17T10:41:59;38.13;;;18.67;;
705;SDS011;21234;48.690;9.016;2022-12-17T10:44:46;34.73;;;16.10;;
705;SDS011;21234;48.690;9.016;2022-12-17T10:47:32;37.67;;;18.57;;
705;SDS011;21234;48.690;9.016;2022-12-17T10:50:17;42.67;;;19.33;;
705;SDS011;21234;48.690;9.016;2022-12-17T10:53:02;42.47;;;18.50;;
705;SDS011;21234;48.690;9.016;2022-12-17T10:55:57;39.60;;;19.20;;
705;SDS011;21234;48.690;9.016;2022-12-17T10:58:42;36.37;;;18.20;;
705;SDS011;21234;48.690;9.016;2022-12-17T11:01:29;35.43;;;17.73;;
705;SDS011;21234;48.690;9.016;2022-12-17T11:04:20;27.80;;;14.73;;
705;SDS011;21234;48.690;9.016;2022-12-17T11:07:06;29.33;;;16.77;;
705;SDS011;21234;48.690;9.016;2022-12-17T11:09:53;27.50;;;16.30;;
705;SDS011;21234;48.690;9.016;2022-12-17T11:12:41;27.67;;;14.37;;
705;SDS011;21234;48.690;9.016;2022-12-17T11:15:30;25.70;;;15.63;;
705;SDS011;21234;48.690;9.016;2022-12-17T11:18:21;29.30;;;13.70;;
705;SDS011;21234;48.690;9.016;2022-12-17T11:21:09;36.93;;;18.93;;
705;SDS011;21234;48.690;9.016;2022-12-17T11:23:57;28.93;;;14.33;;
705;SDS011;21234;48.690;9.016;2022-12-17T11:26:44;30.80;;;16.50;;
705;SDS011;21234;48.690;9.016;2022-12-17T11:29:32;23.80;;;14.30;;
705;SDS011;21234;48.690;9.016;2022-12-17T11:32:29;25.53;;;15.03;;
705;SDS011;21234;48.690;9.016;2022-12-17T11:35:40;27.00;;;12.60;;
705;SDS011;21234;48.690;9.016;2022-12-17T11:38:32;33.40;;;14.47;;
705;SDS011;21234;48.690;9.016;2022-12-17T11:41:20;24.63;;;13.13;;
705;SDS011;21234;48.690;9.016;2022-12-17T11:44:14;24.40;;;13.23;;
705;SDS011;21234;48.690;9.016;2022-12-17T11:47:08;20.67;;;12.60;;
705;SDS011;21234;48.690;9.016;2022-12-17T11:50:04;28.77;;;14.10;;
705;SDS011;21234;48.690;9.016;2022-12-17T11:52:59;20.77;;;12.73;;
705;SDS011;21234;48.690;9.016;2022-12-17T11:55:49;26.67;;;15.70;;
705;SDS011;21234;48.690;9.016;2022-12-17T11:58:48;27.70;;;13.60;;
705;SDS011;21234;48.690;9.016;2022-12-17T12:01:36;20.30;;;13.10;;
705;SDS011;21234;48.690;9.016;2022-12-17T12:04:30;26.87;;;16.33;;
705;SDS011;21234;48.690;9.016;2022-12-17T12:07:27;29.30;;;14.90;;
705;SDS011;21234;48.690;9.016;2022-12-17T12:10:21;25.93;;;15.70;;
705;SDS011;21234;48.690;9.016;2022-12-17T12:13:14;32.30;;;15.00;;
705;SDS011;21234;48.690;9.016;2022-12-17T12:16:06;26.10;;;13.77;;
705;SDS011;21234;48.690;9.016;2022-12-17T12:18:59;21.63;;;13.43;;
705;SDS011;21234;48.690;9.016;2022-12-17T12:21:55;29.87;;;13.83;;
705;SDS011;21234;48.690;9.016;2022-12-17T12:24:53;28.10;;;15.20;;
705;SDS011;21234;48.690;9.016;2022-12-17T12:27:48;22.60;;;14.73;;
705;SDS011;21234;48.690;9.016;2022-12-17T12:30:40;27.30;;;14.67;;
705;SDS011;21234;48.690;9.016;2022-12-17T12:33:36;27.60;;;14.20;;
705;SDS011;21234;48.690;9.016;2022-12-17T12:36:27;28.37;;;16.37;;
705;SDS011;21234;48.690;9.016;2022-12-17T12:39:12;26.40;;;15.17;;
705;SDS011;21234;48.690;9.016;2022-12-17T12:42:02;28.80;;;15.80;;
705;SDS011;21234;48.690;9.016;2022-12-17T12:44:56;29.83;;;14.83;;
705;SDS011;21234;48.690;9.016;2022-12-17T12:47:46;25.60;;;14.67;;
705;SDS011;21234;48.690;9.016;2022-12-17T12:50:39;26.43;;;16.60;;
705;SDS011;21234;48.690;9.016;2022-12-17T12:53:31;34.17;;;16.33;;
705;SDS011;21234;48.690;9.016;2022-12-17T12:56:25;26.40;;;15.30;;
705;SDS011;21234;48.690;9.016;2022-12-17T12:59:11;34.23;;;18.03;;
705;SDS011;21234;48.690;9.016;2022-12-17T13:02:13;36.23;;;18.80;;
705;SDS011;21234;48.690;9.016;2022-12-17T13:05:15;42.20;;;21.30;;
705;SDS011;21234;48.690;9.016;2022-12-17T13:08:00;30.20;;;19.00;;
705;SDS011;21234;48.690;9.016;2022-12-17T13:10:29;35.03;;;17.80;;
705;SDS011;21234;48.690;9.016;2022-12-17T13:12:57;32.57;;;17.80;;
705;SDS011;21234;48.690;9.016;2022-12-17T13:15:36;34.47;;;17.87;;
705;SDS011;21234;48.690;9.016;2022-12-17T13:18:20;30.37;;;17.37;;
705;SDS011;21234;48.690;9.016;2022-12-17T13:20:58;34.60;;;18.63;;
705;SDS011;21234;48.690;9.016;2022-12-17T13:23:29;30.40;;;18.10;;
705;SDS011;21234;48.690;9.016;2022-12-17T13:26:14;26.67;;;16.87;;
705;SDS011;21234;48.690;9.016;2022-12-17T13:28:59;33.63;;;17.00;;
705;SDS011;21234;48.690;9.016;2022-12-17T13:31:27;31.17;;;17.10;;
705;SDS011;21234;48.690;9.016;2022-12-17T13:34:03;28.43;;;16.97;;
705;SDS011;21234;48.690;9.016;2022-12-17T13:36:38;30.50;;;16.70;;
705;SDS011;21234;48.690;9.016;2022-12-17T13:39:14;28.43;;;15.97;;
705;SDS011;21234;48.690;9.016;2022-12-17T13:41:54;30.13;;;16.70;;
705;SDS011;21234;48.690;9.016;2022-12-17T13:44:22;28.80;;;16.40;;
705;SDS011;21234;48.690;9.016;2022-12-17T13:46:51;31.17;;;17.13;;
705;SDS011;21234;48.690;9.016;2022-12-17T13:49:21;28.67;;;16.60;;
705;SDS011;21234;48.690;9.016;2022-12-17T13:51:59;28.23;;;17.23;;
705;SDS011;21234;48.690;9.016;2022-12-17T13:54:27;26.83;;;15.30;;
705;SDS011;21234;48.690;9.016;2022-12-17T13:56:54;43.63;;;16.93;;
705;SDS011;21234;48.690;9.016;2022-12-17T13:59:32;25.53;;;14.37;;
705;SDS011;21234;48.690;9.016;2022-12-17T14:01:59;27.57;;;17.50;;
705;SDS011;21234;48.690;9.016;2022-12-17T14:04:27;30.23;;;17.67;;
705;SDS011;21234;48.690;9.016;2022-12-17T14:06:56;26.23;;;15.83;;
705;SDS011;21234;48.690;9.016;2022-12-17T14:09:27;27.60;;;16.97;;
705;SDS011;21234;48.690;9.016;2022-12-17T14:12:00;32.67;;;18.90;;
705;SDS011;21234;48.690;9.016;2022-12-17T14:14:47;35.57;;;17.17;;
705;SDS011;21234;48.690;9.016;2022-12-17T14:17:17;30.50;;;17.83;;
705;SDS011;21234;48.690;9.016;2022-12-17T14:19:46;31.43;;;17.83;;
705;SDS011;21234;48.690;9.016;2022-12-17T14:22:17;30.73;;;17.43;;
705;SDS011;21234;48.690;9.016;2022-12-17T14:24:48;33.07;;;19.40;;
705;SDS011;21234;48.690;9.016;2022-12-17T14:27:21;34.37;;;18.57;;
705;SDS011;21234;48.690;9.016;2022-12-17T14:29:51;36.27;;;19.27;;
705;SDS011;21234;48.690;9.016;2022-12-17T14:32:21;32.37;;;19.77;;
705;SDS011;21234;48.690;9.016;2022-12-17T14:34:51;37.57;;;19.97;;
705;SDS011;21234;48.690;9.016;2022-12-17T14:37:24;30.17;;;19.07;;
705;SDS011;21234;48.690;9.016;2022-12-17T14:39:52;34.40;;;20.20;;
705;SDS011;21234;48.690;9.016;2022-12-17T14:42:24;32.87;;;18.73;;
705;SDS011;21234;48.690;9.016;2022-12-17T14:44:54;31.50;;;19.40;;
705;SDS011;21234;48.690;9.016;2022-12-17T14:47:23;33.30;;;18.77;;
705;SDS011;21234;48.690;9.016;2022-12-17T14:49:54;34.07;;;18.90;;
705;SDS011;21234;48.690;9.016;2022-12-17T14:52:29;32.00;;;19.97;;
705;SDS011;21234;48.690;9.016;2022-12-17T14:55:00;31.90;;;20.10;;
705;SDS011;21234;48.690;9.016;2022-12-17T14:57:27;33.37;;;17.30;;
705;SDS011;21234;48.690;9.016;2022-12-17T14:59:53;32.10;;;17.17;;
705;SDS011;21234;48.690;9.016;2022-12-17T15:02:21;29.10;;;18.50;;
705;SDS011;21234;48.690;9.016;2022-12-17T15:04:50;31.00;;;18.83;;
705;SDS011;21234;48.690;9.016;2022-12-17T15:07:22;28.40;;;19.50;;
705;SDS011;21234;48.690;9.016;2022-12-17T15:09:51;34.37;;;18.63;;
705;SDS011;21234;48.690;9.016;2022-12-17T15:12:18;31.73;;;17.67;;
705;SDS011;21234;48.690;9.016;2022-12-17T15:14:45;27.40;;;17.73;;
705;SDS011;21234;48.690;9.016;2022-12-17T15:17:12;28.63;;;15.50;;
705;SDS011;21234;48.690;9.016;2022-12-17T15:19:40;36.33;;;20.27;;
705;SDS011;21234;48.690;9.016;2022-12-17T15:22:09;32.30;;;17.37;;
705;SDS011;21234;48.690;9.016;2022-12-17T15:24:42;35.90;;;17.60;;
705;SDS011;21234;48.690;9.016;2022-12-17T15:27:10;32.10;;;18.70;;
705;SDS011;21234;48.690;9.016;2022-12-17T15:29:38;32.07;;;17.97;;
705;SDS011;21234;48.690;9.016;2022-12-17T15:32:05;32.30;;;17.77;;
705;SDS011;21234;48.690;9.016;2022-12-17T15:34:32;37.77;;;17.10;;
705;SDS011;21234;48.690;9.016;2022-12-17T15:36:59;38.17;;;19.93;;
705;SDS011;21234;48.690;9.016;2022-12-17T15:39:26;33.57;;;16.37;;
705;SDS011;21234;48.690;9.016;2022-12-17T15:41:54;24.87;;;15.90;;
705;SDS011;21234;48.690;9.016;2022-12-17T15:44:38;34.33;;;17.83;;
705;SDS011;21234;48.690;9.016;2022-12-17T15:47:05;30.53;;;16.73;;
705;SDS011;21234;48.690;9.016;2022-12-17T15:49:32;29.33;;;16.07;;
705;SDS011;21234;48.690;9.016;2022-12-17T15:51:59;32.67;;;17.00;;
705;SDS011;21234;48.690;9.016;2022-12-17T15:54:25;36.07;;;18.23;;
705;SDS011;21234;48.690;9.016;2022-12-17T15:56:52;39.40;;;20.60;;
705;SDS011;21234;48.690;9.016;2022-12-17T15:59:21;37.03;;;18.73;;
705;SDS011;21234;48.690;9.016;2022-12-17T16:01:49;27.20;;;14.87;;
705;SDS011;21234;48.690;9.016;2022-12-17T16:04:15;36.27;;;19.77;;
705;SDS011;21234;48.690;9.016;2022-12-17T16:06:42;31.33;;;20.27;;
705;SDS011;21234;48.690;9.016;2022-12-17T16:09:09;33.83;;;18.03;;
705;SDS011;21234;48.690;9.016;2022-12-17T16:11:35;35.27;;;18.07;;
705;SDS011;21234;48.690;9.016;2022-12-17T16:14:02;49.97;;;26.63;;
705;SDS011;21234;48.690;9.016;2022-12-17T16:16:30;36.57;;;19.67;;
705;SDS011;21234;48.690;9.016;2022-12-17T16:18:57;37.20;;;19.53;;
705;SDS011;21234;48.690;9.016;2022-12-17T16:21:26;32.30;;;18.10;;
705;SDS011;21234;48.690;9.016;2022-12-17T16:23:54;34.90;;;18.97;;
705;SDS011;21234;48.690;9.016;2022-12-17T16:26:20;31.50;;;18.90;;
705;SDS011;21234;48.690;9.016;2022-12-17T16:28:47;36.17;;;18.40;;